createdAt,value
2019-05-13T00:00:35.508Z,20.57
2019-05-13T00:03:08.570Z,21.23
2019-05-13T00:05:44.243Z,21.37
2019-05-13T00:08:16.297Z,21.40
2019-05-13T00:10:48.791Z,21.23
2019-05-13T00:13:25.651Z,20.52
2019-05-13T00:15:58.375Z,21.93
2019-05-13T00:18:33.784Z,19.25
2019-05-13T00:21:05.451Z,21.37
2019-05-13T00:23:38.447Z,21.30
2019-05-13T00:28:44.356Z,18.90
2019-05-13T00:31:16.690Z,20.95
2019-05-13T00:33:53.140Z,19.05
2019-05-13T00:36:25.305Z,21.40
2019-05-13T00:38:58.548Z,20.82
2019-05-13T00:41:33.712Z,25.45
2019-05-13T00:44:06.820Z,24.52
2019-05-13T00:49:13.274Z,20.40
2019-05-13T00:51:45.422Z,20.35
2019-05-13T00:56:49.303Z,18.15
2019-05-13T00:59:24.097Z,19.95
2019-05-13T01:01:57.069Z,18.48
2019-05-13T01:04:30.095Z,17.77
2019-05-13T01:07:04.424Z,17.32
2019-05-13T01:09:38.547Z,16.75
2019-05-13T01:12:13.285Z,16.55
2019-05-13T01:14:46.590Z,17.57
2019-05-13T01:17:19.710Z,18.15
2019-05-13T01:19:53.760Z,17.80
2019-05-13T01:22:30.226Z,18.17
2019-05-13T01:25:04.061Z,17.82
2019-05-13T01:27:38.018Z,17.52
2019-05-13T01:30:13.371Z,16.80
2019-05-13T01:32:54.060Z,14.90
2019-05-13T01:35:26.641Z,15.88
2019-05-13T01:37:58.963Z,15.55
2019-05-13T01:40:34.442Z,17.20
2019-05-13T01:43:06.085Z,16.62
2019-05-13T01:45:44.210Z,15.40
2019-05-13T01:48:16.947Z,14.18
2019-05-13T01:53:24.306Z,13.35
2019-05-13T01:55:57.247Z,13.90
2019-05-13T01:58:33.794Z,13.43
2019-05-13T02:01:06.336Z,14.03
2019-05-13T02:06:10.193Z,13.60
2019-05-13T02:08:43.977Z,14.25
2019-05-13T02:11:16.766Z,14.40
2019-05-13T02:13:49.982Z,13.90
2019-05-13T02:16:24.422Z,15.95
2019-05-13T02:18:56.325Z,16.23
2019-05-13T02:21:28.582Z,16.52
2019-05-13T02:24:01.016Z,16.00
2019-05-13T02:26:34.541Z,16.10
2019-05-13T02:29:08.137Z,15.63
2019-05-13T02:31:51.674Z,15.58
2019-05-13T02:34:18.297Z,18.92
2019-05-13T02:39:24.385Z,19.40
2019-05-13T02:41:58.359Z,18.07
2019-05-13T02:44:33.386Z,17.40
2019-05-13T02:47:07.478Z,17.92
2019-05-13T02:49:42.975Z,16.48
2019-05-13T02:52:15.693Z,16.30
2019-05-13T02:54:52.584Z,15.88
2019-05-13T02:57:24.384Z,15.20
2019-05-13T03:02:32.571Z,16.32
2019-05-13T03:05:04.744Z,14.60
2019-05-13T03:07:37.372Z,15.28
2019-05-13T03:10:13.211Z,13.80
2019-05-13T03:12:44.177Z,14.13
2019-05-13T03:15:16.904Z,13.43
2019-05-13T03:17:53.584Z,14.15
2019-05-13T03:20:26.558Z,14.45
2019-05-13T03:23:02.978Z,14.60
2019-05-13T03:25:33.992Z,15.13
2019-05-13T03:30:38.853Z,15.85
2019-05-13T03:33:18.767Z,13.65
2019-05-13T03:35:46.301Z,15.70
2019-05-13T03:38:22.361Z,13.48
2019-05-13T03:40:55.342Z,14.30
2019-05-13T03:43:32.544Z,8.23
2019-05-13T03:46:06.077Z,13.65
2019-05-13T03:48:42.747Z,11.22
2019-05-13T03:51:16.816Z,11.00
2019-05-13T03:53:53.574Z,11.83
2019-05-13T03:56:32.843Z,12.82
2019-05-13T03:59:07.077Z,14.07
2019-05-13T04:01:42.525Z,12.10
2019-05-13T04:04:14.474Z,13.72
2019-05-13T04:06:47.633Z,12.10
2019-05-13T04:09:27.660Z,12.50
2019-05-13T04:11:58.236Z,15.95
2019-05-13T04:14:33.411Z,15.10
2019-05-13T04:17:05.719Z,12.88
2019-05-13T04:19:38.312Z,14.03
2019-05-13T04:22:13.030Z,15.28
2019-05-13T04:24:46.189Z,14.18
2019-05-13T04:27:19.001Z,15.40
2019-05-13T04:29:52.797Z,15.50
2019-05-13T04:32:28.768Z,15.45
2019-05-13T04:35:03.379Z,12.90
2019-05-13T04:37:33.576Z,16.07
2019-05-13T04:40:12.902Z,13.05
2019-05-13T04:42:53.637Z,14.18
2019-05-13T04:45:25.450Z,16.07
2019-05-13T04:47:58.494Z,15.53
2019-05-13T04:53:04.412Z,14.07
2019-05-13T04:55:38.690Z,13.43
2019-05-13T04:58:12.983Z,14.98
2019-05-13T05:01:04.768Z,12.18
2019-05-13T05:03:44.791Z,14.73
2019-05-13T05:06:28.525Z,13.70
2019-05-13T05:09:15.767Z,15.08
2019-05-13T05:12:24.911Z,13.30
2019-05-13T05:15:08.664Z,11.60
2019-05-13T05:18:06.657Z,8.53
2019-05-13T05:21:01.507Z,12.00
2019-05-13T05:24:04.282Z,9.80
2019-05-13T05:27:12.028Z,11.60
2019-05-13T05:30:16.413Z,14.43
2019-05-13T05:32:57.915Z,13.85
2019-05-13T05:35:33.049Z,9.55
2019-05-13T05:38:25.302Z,12.18
2019-05-13T05:40:58.593Z,12.85
2019-05-13T05:43:33.230Z,11.88
2019-05-13T05:46:11.171Z,12.05
2019-05-13T05:48:45.356Z,11.28
2019-05-13T05:51:19.045Z,10.13
2019-05-13T05:53:55.530Z,10.13
2019-05-13T05:56:32.513Z,11.33
2019-05-13T05:59:06.303Z,11.48
2019-05-13T06:01:41.597Z,13.30
2019-05-13T06:04:14.895Z,12.75
2019-05-13T06:06:52.044Z,12.05
2019-05-13T06:09:23.833Z,12.70
2019-05-13T06:12:04.760Z,13.43
2019-05-13T06:14:52.450Z,12.45
2019-05-13T06:17:25.673Z,13.05
2019-05-13T06:22:31.914Z,11.93
2019-05-13T06:25:04.249Z,12.05
2019-05-13T06:27:37.181Z,11.78
2019-05-13T06:32:41.993Z,13.15
2019-05-13T06:35:15.080Z,13.75
2019-05-13T06:37:47.997Z,13.03
2019-05-13T06:40:21.508Z,14.53
2019-05-13T06:42:54.076Z,10.40
2019-05-13T06:45:27.440Z,9.68
2019-05-13T06:48:02.247Z,7.15
2019-05-13T06:50:35.476Z,7.35
2019-05-13T06:53:08.974Z,7.75
2019-05-13T06:55:41.945Z,8.93
2019-05-13T06:58:15.682Z,7.97
2019-05-13T07:00:51.604Z,7.92
2019-05-13T07:03:27.507Z,6.30
2019-05-13T07:06:01.808Z,7.65
2019-05-13T07:08:34.927Z,7.85
2019-05-13T07:11:20.296Z,7.58
2019-05-13T07:13:42.727Z,9.10
2019-05-13T07:16:15.679Z,7.00
2019-05-13T07:18:48.460Z,4.97
2019-05-13T07:21:22.437Z,7.80
2019-05-13T07:23:55.227Z,7.50
2019-05-13T07:26:27.792Z,8.38
2019-05-13T07:29:03.238Z,8.08
2019-05-13T07:31:35.357Z,6.25
2019-05-13T07:34:08.142Z,6.50
2019-05-13T07:36:42.183Z,7.00
2019-05-13T07:39:14.916Z,6.40
2019-05-13T07:41:47.775Z,6.83
2019-05-13T07:44:22.316Z,6.65
2019-05-13T07:46:55.872Z,6.80
2019-05-13T07:52:01.660Z,6.25
2019-05-13T07:54:35.313Z,6.97
2019-05-13T07:57:08.482Z,3.33
2019-05-13T08:04:49.200Z,6.33
2019-05-13T08:07:22.613Z,4.53
2019-05-13T08:09:59.638Z,6.22
2019-05-13T08:12:31.967Z,6.20
2019-05-13T08:15:05.672Z,6.25
2019-05-13T08:17:44.299Z,5.60
2019-05-13T08:20:14.092Z,6.15
2019-05-13T08:22:47.130Z,6.47
2019-05-13T08:27:51.596Z,6.75
2019-05-13T08:32:58.807Z,6.47
2019-05-13T08:35:31.541Z,7.72
2019-05-13T08:40:36.084Z,6.20
2019-05-13T08:43:09.167Z,8.48
2019-05-13T08:45:42.267Z,7.95
2019-05-13T08:48:15.380Z,5.55
2019-05-13T08:53:21.113Z,9.53
2019-05-13T08:55:53.239Z,9.18
2019-05-13T08:58:32.080Z,9.28
2019-05-13T09:01:03.128Z,10.18
2019-05-13T09:03:36.035Z,10.20
2019-05-13T09:06:08.702Z,9.15
2019-05-13T09:08:45.184Z,10.08
2019-05-13T09:11:17.989Z,8.53
2019-05-13T09:13:51.608Z,11.43
2019-05-13T09:16:24.268Z,10.23
2019-05-13T09:21:31.843Z,8.50
2019-05-13T09:24:20.679Z,8.68
2019-05-13T09:26:42.102Z,8.73
2019-05-13T09:29:14.285Z,8.70
2019-05-13T09:31:47.616Z,7.45
2019-05-13T09:34:22.177Z,8.73
2019-05-13T09:36:55.328Z,8.10
2019-05-13T09:39:29.163Z,8.05
2019-05-13T09:42:02.850Z,8.63
2019-05-13T09:44:37.076Z,8.00
2019-05-13T09:47:12.442Z,8.05
2019-05-13T09:49:46.051Z,8.18
2019-05-13T09:52:18.587Z,7.20
2019-05-13T09:54:53.950Z,7.75
2019-05-13T09:57:25.689Z,7.92
2019-05-13T10:00:01.410Z,7.65
2019-05-13T10:02:37.246Z,7.55
2019-05-13T10:05:11.566Z,6.65
2019-05-13T10:07:45.493Z,6.72
2019-05-13T10:10:19.636Z,6.65
2019-05-13T10:13:08.197Z,7.22
2019-05-13T10:15:27.666Z,8.60
2019-05-13T10:20:58.328Z,7.30
2019-05-13T10:23:33.055Z,7.35
2019-05-13T10:26:08.174Z,7.03
2019-05-13T10:28:42.684Z,6.80
2019-05-13T10:31:15.678Z,7.17
2019-05-13T10:33:48.422Z,7.70
2019-05-13T10:36:22.635Z,8.40
2019-05-13T10:38:55.698Z,9.73
2019-05-13T10:41:29.241Z,8.40
2019-05-13T10:44:03.104Z,8.65
2019-05-13T10:46:35.930Z,9.25
2019-05-13T10:49:08.573Z,8.05
2019-05-13T10:51:41.768Z,8.65
2019-05-13T10:54:15.120Z,8.48
2019-05-13T10:56:48.489Z,7.90
2019-05-13T10:59:23.184Z,7.28
2019-05-13T11:01:55.956Z,9.15
2019-05-13T11:04:32.027Z,7.83
2019-05-13T11:07:04.234Z,8.00
2019-05-13T11:09:37.274Z,9.15
2019-05-13T11:12:12.300Z,9.73
2019-05-13T11:14:46.666Z,9.15
2019-05-13T11:19:53.708Z,9.78
2019-05-13T11:22:26.834Z,10.25
2019-05-13T11:25:01.745Z,10.65
2019-05-13T11:27:38.025Z,10.20
2019-05-13T11:30:12.201Z,9.20
2019-05-13T11:35:18.012Z,12.13
2019-05-13T11:40:26.664Z,11.53
2019-05-13T11:43:06.000Z,11.57
2019-05-13T11:45:37.190Z,12.10
2019-05-13T11:48:09.925Z,12.50
2019-05-13T11:50:50.159Z,12.85
2019-05-13T11:53:37.424Z,12.20
2019-05-13T11:55:52.983Z,12.23
2019-05-13T11:58:26.240Z,13.48
2019-05-13T12:01:12.103Z,13.13
2019-05-13T12:03:43.483Z,13.50
2019-05-13T12:06:18.571Z,14.28
2019-05-13T12:08:55.028Z,13.18
2019-05-13T12:14:06.886Z,14.50
2019-05-13T12:16:42.319Z,14.20
2019-05-13T12:19:14.109Z,14.83
2019-05-13T12:24:22.119Z,13.90
2019-05-13T12:27:03.628Z,13.83
2019-05-13T12:29:35.847Z,14.63
2019-05-13T12:32:08.495Z,12.40
2019-05-13T12:34:45.413Z,12.65
2019-05-13T12:37:15.260Z,13.45
2019-05-13T12:39:48.129Z,12.80
2019-05-13T12:42:22.614Z,13.08
2019-05-13T12:45:09.796Z,13.20
2019-05-13T12:47:29.443Z,14.00
2019-05-13T12:50:03.243Z,13.50
2019-05-13T12:52:35.802Z,13.25
2019-05-13T12:55:08.927Z,12.07
2019-05-13T12:57:42.016Z,13.83
2019-05-13T13:00:15.857Z,14.25
2019-05-13T13:02:51.620Z,13.95
2019-05-13T13:05:24.840Z,14.05
2019-05-13T13:08:16.646Z,10.85
2019-05-13T13:10:34.461Z,13.88
2019-05-13T13:13:05.374Z,12.95
2019-05-13T13:15:42.249Z,12.82
2019-05-13T13:18:14.301Z,15.30
2019-05-13T13:21:07.005Z,14.43
2019-05-13T13:23:42.510Z,13.75
2019-05-13T13:26:16.278Z,13.48
2019-05-13T13:28:55.549Z,14.90
2019-05-13T13:31:25.753Z,13.90
2019-05-13T13:34:08.133Z,14.75
2019-05-13T13:36:33.533Z,16.07
2019-05-13T13:39:13.712Z,14.90
2019-05-13T13:41:44.168Z,16.17
2019-05-13T13:46:54.342Z,15.23
2019-05-13T13:49:25.527Z,15.58
2019-05-13T13:51:58.322Z,14.33
2019-05-13T13:57:07.760Z,14.58
2019-05-13T14:00:14.193Z,14.10
2019-05-13T14:02:17.008Z,16.37
2019-05-13T14:04:54.000Z,15.60
2019-05-13T14:06:31.861Z,12.75
2019-05-13T14:06:59.605Z,9.55
2019-05-13T14:07:34.390Z,14.18
2019-05-13T14:10:06.023Z,15.03
2019-05-13T14:12:34.975Z,15.60
2019-05-13T14:15:09.797Z,15.18
2019-05-13T14:17:42.687Z,14.80
2019-05-13T14:20:16.186Z,13.75
2019-05-13T14:22:53.531Z,14.68
2019-05-13T14:25:23.410Z,15.03
2019-05-13T14:30:27.736Z,16.12
2019-05-13T14:33:02.316Z,17.27
2019-05-13T14:35:34.480Z,15.68
2019-05-13T14:38:07.408Z,16.62
2019-05-13T14:40:40.023Z,16.75
2019-05-13T14:43:13.631Z,15.78
2019-05-13T14:45:52.177Z,16.42
2019-05-13T14:48:23.365Z,16.17
2019-05-13T14:53:27.187Z,15.08
2019-05-13T14:55:59.613Z,13.83
2019-05-13T14:58:32.752Z,14.23
2019-05-13T15:01:15.788Z,14.25
2019-05-13T15:03:41.595Z,15.55
2019-05-13T15:06:13.620Z,18.23
2019-05-13T15:08:46.537Z,17.12
2019-05-13T15:11:21.746Z,18.37
2019-05-13T15:13:54.323Z,16.05
2019-05-13T15:16:32.358Z,15.20
2019-05-13T15:19:08.059Z,16.07
2019-05-13T15:21:41.224Z,18.87
2019-05-13T15:24:14.673Z,17.87
2019-05-13T15:26:47.486Z,38.00
2019-05-13T15:29:22.353Z,42.30
2019-05-13T15:31:55.256Z,38.02
2019-05-13T15:34:31.741Z,30.92
2019-05-13T15:37:04.307Z,23.42
2019-05-13T15:39:36.973Z,20.50
2019-05-13T15:42:11.867Z,19.57
2019-05-13T15:44:44.494Z,17.50
2019-05-13T15:47:24.115Z,17.67
2019-05-13T15:49:51.183Z,16.62
2019-05-13T15:52:31.678Z,14.68
2019-05-13T15:55:01.578Z,15.78
2019-05-13T15:57:35.452Z,15.20
2019-05-13T16:00:12.361Z,15.25
2019-05-13T16:02:43.984Z,14.07
2019-05-13T16:05:17.305Z,14.68
2019-05-13T16:07:51.650Z,13.45
2019-05-13T16:10:24.115Z,14.15
2019-05-13T16:12:56.861Z,13.65
2019-05-13T16:18:04.769Z,14.45
2019-05-13T16:20:41.952Z,14.80
2019-05-13T16:23:12.550Z,14.90
2019-05-13T16:25:45.783Z,14.10
2019-05-13T16:30:55.762Z,13.18
2019-05-13T16:33:31.205Z,13.78
2019-05-13T16:36:03.729Z,14.38
2019-05-13T16:38:36.486Z,10.65
2019-05-13T16:41:11.808Z,14.25
2019-05-13T16:43:44.842Z,12.00
2019-05-13T16:46:18.499Z,11.83
2019-05-13T16:48:51.061Z,13.60
2019-05-13T16:51:31.745Z,13.53
2019-05-13T16:54:11.102Z,12.88
2019-05-13T16:56:42.072Z,13.75
2019-05-13T16:59:21.014Z,13.48
2019-05-13T17:01:54.537Z,14.30
2019-05-13T17:04:27.218Z,13.58
2019-05-13T17:07:01.528Z,12.13
2019-05-13T17:09:33.977Z,11.75
2019-05-13T17:14:38.475Z,13.20
2019-05-13T17:17:12.126Z,12.33
2019-05-13T17:19:44.500Z,14.35
2019-05-13T17:22:17.318Z,16.17
2019-05-13T17:24:51.709Z,13.75
2019-05-13T17:27:24.081Z,15.23
2019-05-13T17:29:56.449Z,12.80
2019-05-13T17:32:29.591Z,14.25
2019-05-13T17:37:35.616Z,15.43
2019-05-13T17:40:11.603Z,15.83
2019-05-13T17:42:43.435Z,16.90
2019-05-13T17:45:16.167Z,14.55
2019-05-13T17:47:51.857Z,14.68
2019-05-13T17:50:23.694Z,17.20
2019-05-13T17:53:02.072Z,17.05
2019-05-13T17:55:34.679Z,16.55
2019-05-13T17:58:07.638Z,16.90
2019-05-13T18:00:41.539Z,17.45
2019-05-13T18:03:14.465Z,18.87
2019-05-13T18:05:47.048Z,17.70
2019-05-13T18:08:19.947Z,17.62
2019-05-13T18:13:24.140Z,16.67
2019-05-13T18:15:56.440Z,17.17
2019-05-13T18:18:40.329Z,17.32
2019-05-13T18:21:03.374Z,16.80
2019-05-13T18:23:36.063Z,17.50
2019-05-13T18:26:08.531Z,17.00
2019-05-13T18:28:42.165Z,16.65
2019-05-13T18:31:14.720Z,16.17
2019-05-13T18:33:47.333Z,15.85
2019-05-13T18:36:22.109Z,16.32
2019-05-13T18:38:53.984Z,16.32
2019-05-13T18:41:26.522Z,16.07
2019-05-13T18:44:01.288Z,15.28
2019-05-13T18:46:33.319Z,16.60
2019-05-13T18:49:05.979Z,17.00
2019-05-13T18:51:38.355Z,15.65
2019-05-13T18:54:11.960Z,15.40
2019-05-13T18:56:46.515Z,15.98
2019-05-13T18:59:18.408Z,16.20
2019-05-13T19:01:52.879Z,16.87
2019-05-13T19:04:24.932Z,16.40
2019-05-13T19:06:57.326Z,15.63
2019-05-13T19:09:31.075Z,15.70
2019-05-13T19:12:03.823Z,15.60
2019-05-13T19:14:36.524Z,15.13
2019-05-13T19:17:08.927Z,17.15
2019-05-13T19:19:42.187Z,16.37
2019-05-13T19:22:14.942Z,16.52
2019-05-13T19:24:48.734Z,16.55
2019-05-13T19:27:21.674Z,16.20
2019-05-13T19:32:26.450Z,18.17
2019-05-13T19:35:02.288Z,18.35
2019-05-13T19:37:34.548Z,17.55
2019-05-13T19:40:08.757Z,19.55
2019-05-13T19:42:42.027Z,19.20
2019-05-13T19:47:46.240Z,18.27
2019-05-13T19:50:18.777Z,17.73
2019-05-13T19:52:51.879Z,18.90
2019-05-13T19:55:24.543Z,17.87
2019-05-13T19:57:57.159Z,20.00
2019-05-13T20:00:31.581Z,20.40
2019-05-13T20:03:04.325Z,21.02
2019-05-13T20:05:37.965Z,20.35
2019-05-13T20:08:10.764Z,17.92
2019-05-13T20:10:43.675Z,18.50
2019-05-13T20:13:16.203Z,18.50
2019-05-13T20:18:22.498Z,18.30
2019-05-13T20:20:54.797Z,18.50
2019-05-13T20:23:27.240Z,18.15
2019-05-13T20:26:00.298Z,18.17
2019-05-13T20:28:33.137Z,15.88
2019-05-13T20:31:06.532Z,16.67
2019-05-13T20:33:42.297Z,17.10
2019-05-13T20:36:14.330Z,17.32
2019-05-13T20:38:47.372Z,17.25
2019-05-13T20:43:52.062Z,17.17
2019-05-13T20:46:24.751Z,16.57
2019-05-13T20:48:57.462Z,18.95
2019-05-13T20:51:31.340Z,17.77
2019-05-13T20:54:05.838Z,17.98
2019-05-13T20:56:38.664Z,16.82
2019-05-13T20:59:11.310Z,15.72
2019-05-13T21:04:15.685Z,16.82
2019-05-13T21:06:51.397Z,17.57
2019-05-13T21:09:22.927Z,16.57
2019-05-13T21:11:56.233Z,17.73
2019-05-13T21:14:31.783Z,16.85
2019-05-13T21:17:03.503Z,17.92
2019-05-13T21:19:39.558Z,19.50
2019-05-13T21:22:11.794Z,18.75
2019-05-13T21:24:43.885Z,19.77
2019-05-13T21:27:16.669Z,18.90
2019-05-13T21:29:53.438Z,17.80
2019-05-13T21:32:26.414Z,17.10
2019-05-13T21:35:12.863Z,18.07
2019-05-13T21:37:45.821Z,18.10
2019-05-13T21:42:53.089Z,17.20
2019-05-13T21:45:25.658Z,19.50
2019-05-13T21:47:58.546Z,20.20
2019-05-13T21:50:36.910Z,19.42
2019-05-13T21:53:05.637Z,19.17
2019-05-13T21:55:38.740Z,20.52
2019-05-13T22:00:45.940Z,20.08
2019-05-13T22:03:19.735Z,20.05
2019-05-13T22:05:52.409Z,20.75
2019-05-13T22:08:25.059Z,19.02
2019-05-13T22:10:57.391Z,21.65
2019-05-13T22:13:31.531Z,19.65
2019-05-13T22:16:04.691Z,21.57
2019-05-13T22:21:08.365Z,19.30
2019-05-13T22:23:41.214Z,21.93
2019-05-13T22:26:14.184Z,19.40
2019-05-13T22:28:48.025Z,21.30
2019-05-13T22:31:22.224Z,20.70
2019-05-13T22:33:55.985Z,19.95
2019-05-13T22:36:28.841Z,20.10
2019-05-13T22:39:02.082Z,20.48
2019-05-13T22:41:35.683Z,19.70
2019-05-13T22:44:11.432Z,20.32
2019-05-13T22:46:42.975Z,20.08
2019-05-13T22:49:16.119Z,19.73
2019-05-13T22:51:48.633Z,20.48
2019-05-13T22:54:22.341Z,21.55
2019-05-13T22:56:54.553Z,21.23
2019-05-13T22:59:28.547Z,20.17
2019-05-13T23:02:01.137Z,20.65
2019-05-13T23:04:33.811Z,19.95
2019-05-13T23:07:06.466Z,19.82
2019-05-13T23:09:41.404Z,19.70
2019-05-13T23:12:12.771Z,20.15
2019-05-13T23:14:46.231Z,22.85
2019-05-13T23:17:18.472Z,20.70
2019-05-13T23:19:52.424Z,22.02
2019-05-13T23:22:24.853Z,22.35
2019-05-13T23:24:57.936Z,23.02
2019-05-13T23:27:32.002Z,22.10
2019-05-13T23:30:04.891Z,22.42
2019-05-13T23:35:11.883Z,22.30
2019-05-13T23:37:44.811Z,22.42
2019-05-13T23:40:18.619Z,24.43
2019-05-13T23:42:51.757Z,23.57
2019-05-13T23:45:24.845Z,20.82
2019-05-13T23:47:57.158Z,24.63
2019-05-13T23:50:31.957Z,23.92
2019-05-13T23:53:03.869Z,26.15
2019-05-13T23:55:36.996Z,25.48
2019-05-13T23:58:09.292Z,26.60
